Terminal Aerodrome Forecast
Issued by NWS Louisville, KY

Home | Current Version | Previous Version | Text Only | Print | Product List | Glossary On
Versions: 1 2 3 4 5 6 7 8 9 10 11 12 13 14 15
269
FTUS43 KLMK 250520
TAFBWG
TAF
KBWG 250520Z 2506/2606 VRB03KT P6SM FEW040
     FM251000 06004KT 4SM BR SCT040
     FM251200 07005KT P6SM SCT040=

USA.gov is the U.S. government's official web portal to all federal, state and local government web resources and services.